sensor_id;sensor_type;location;lat;lon;timestamp;P1;durP1;ratioP1;P2;durP2;ratioP2
49582;SDS011;36329;48.816;44.624;2022-08-21T00:00:54;8;;;2.3;;
49582;SDS011;36329;48.816;44.624;2022-08-21T00:03:57;7.1;;;2.4;;
49582;SDS011;36329;48.816;44.624;2022-08-21T00:06:58;9.8;;;3.7;;
49582;SDS011;36329;48.816;44.624;2022-08-21T00:10:00;15.7;;;4;;
49582;SDS011;36329;48.816;44.624;2022-08-21T00:13:02;11;;;3.5;;
49582;SDS011;36329;48.816;44.624;2022-08-21T00:16:04;8.9;;;2.7;;
49582;SDS011;36329;48.816;44.624;2022-08-21T00:19:06;6.8;;;1.9;;
49582;SDS011;36329;48.816;44.624;2022-08-21T00:22:08;5.5;;;1.8;;
49582;SDS011;36329;48.816;44.624;2022-08-21T00:25:10;5.3;;;1.4;;
49582;SDS011;36329;48.816;44.624;2022-08-21T00:28:13;6.4;;;1.4;;
49582;SDS011;36329;48.816;44.624;2022-08-21T00:31:21;5.4;;;1.8;;
49582;SDS011;36329;48.816;44.624;2022-08-21T00:34:22;6.1;;;2.3;;
49582;SDS011;36329;48.816;44.624;2022-08-21T00:37:24;6;;;2.5;;
49582;SDS011;36329;48.816;44.624;2022-08-21T00:40:32;7.5;;;2.3;;
49582;SDS011;36329;48.816;44.624;2022-08-21T00:43:37;6;;;1.9;;
49582;SDS011;36329;48.816;44.624;2022-08-21T00:46:46;4.5;;;1.2;;
49582;SDS011;36329;48.816;44.624;2022-08-21T00:49:48;3.4;;;1;;
49582;SDS011;36329;48.816;44.624;2022-08-21T00:53:00;3.4;;;0.8;;
49582;SDS011;36329;48.816;44.624;2022-08-21T00:56:05;3.9;;;0.8;;
49582;SDS011;36329;48.816;44.624;2022-08-21T00:59:10;3.5;;;0.7;;
49582;SDS011;36329;48.816;44.624;2022-08-21T01:02:12;5.3;;;0.8;;
49582;SDS011;36329;48.816;44.624;2022-08-21T01:05:14;4;;;0.5;;
49582;SDS011;36329;48.816;44.624;2022-08-21T01:08:16;2.9;;;0.6;;
49582;SDS011;36329;48.816;44.624;2022-08-21T01:11:19;5.1;;;0.8;;
49582;SDS011;36329;48.816;44.624;2022-08-21T01:14:21;6;;;0.6;;
49582;SDS011;36329;48.816;44.624;2022-08-21T01:17:23;2.9;;;0.5;;
49582;SDS011;36329;48.816;44.624;2022-08-21T01:20:25;3.3;;;0.7;;
49582;SDS011;36329;48.816;44.624;2022-08-21T01:23:27;1.8;;;0.6;;
49582;SDS011;36329;48.816;44.624;2022-08-21T01:26:30;1.9;;;0.6;;
49582;SDS011;36329;48.816;44.624;2022-08-21T01:29:41;1.5;;;0.5;;
49582;SDS011;36329;48.816;44.624;2022-08-21T01:32:45;4.6;;;0.6;;
49582;SDS011;36329;48.816;44.624;2022-08-21T01:35:48;2.7;;;0.6;;
49582;SDS011;36329;48.816;44.624;2022-08-21T01:38:50;3;;;1.1;;
49582;SDS011;36329;48.816;44.624;2022-08-21T01:41:52;3.3;;;0.7;;
49582;SDS011;36329;48.816;44.624;2022-08-21T01:44:54;6.4;;;0.8;;
49582;SDS011;36329;48.816;44.624;2022-08-21T01:47:56;2.9;;;0.8;;
49582;SDS011;36329;48.816;44.624;2022-08-21T01:50:58;3.3;;;0.8;;
49582;SDS011;36329;48.816;44.624;2022-08-21T01:54:00;4.3;;;1.2;;
49582;SDS011;36329;48.816;44.624;2022-08-21T01:57:07;5.6;;;1.6;;
49582;SDS011;36329;48.816;44.624;2022-08-21T02:00:16;8.4;;;2;;
49582;SDS011;36329;48.816;44.624;2022-08-21T02:03:20;7.6;;;2.4;;
49582;SDS011;36329;48.816;44.624;2022-08-21T02:06:27;8.8;;;2.3;;
49582;SDS011;36329;48.816;44.624;2022-08-21T02:09:34;5.3;;;2.6;;
49582;SDS011;36329;48.816;44.624;2022-08-21T02:12:36;6.7;;;2.6;;
49582;SDS011;36329;48.816;44.624;2022-08-21T02:15:42;7.4;;;2.3;;
49582;SDS011;36329;48.816;44.624;2022-08-21T02:18:45;4.7;;;2.1;;
49582;SDS011;36329;48.816;44.624;2022-08-21T02:21:47;4.4;;;2;;
49582;SDS011;36329;48.816;44.624;2022-08-21T02:24:49;4.9;;;1.9;;
49582;SDS011;36329;48.816;44.624;2022-08-21T02:27:57;6.2;;;1.9;;
49582;SDS011;36329;48.816;44.624;2022-08-21T02:31:01;4.2;;;1.8;;
49582;SDS011;36329;48.816;44.624;2022-08-21T02:34:04;6.2;;;1.7;;
49582;SDS011;36329;48.816;44.624;2022-08-21T02:37:05;4.6;;;1.6;;
49582;SDS011;36329;48.816;44.624;2022-08-21T02:40:07;5.1;;;1.9;;
49582;SDS011;36329;48.816;44.624;2022-08-21T02:43:09;3.9;;;1.9;;
49582;SDS011;36329;48.816;44.624;2022-08-21T02:46:12;5.4;;;1.9;;
49582;SDS011;36329;48.816;44.624;2022-08-21T02:49:15;4.7;;;1.9;;
49582;SDS011;36329;48.816;44.624;2022-08-21T02:52:17;5.5;;;1.8;;
49582;SDS011;36329;48.816;44.624;2022-08-21T02:55:19;4.8;;;1.9;;
49582;SDS011;36329;48.816;44.624;2022-08-21T02:58:27;4.2;;;2.1;;
49582;SDS011;36329;48.816;44.624;2022-08-21T03:01:33;2.9;;;1.8;;
49582;SDS011;36329;48.816;44.624;2022-08-21T03:04:40;5.3;;;1.6;;
49582;SDS011;36329;48.816;44.624;2022-08-21T03:07:47;3.8;;;1.7;;
49582;SDS011;36329;48.816;44.624;2022-08-21T03:11:05;4.4;;;1.8;;
49582;SDS011;36329;48.816;44.624;2022-08-21T03:14:08;4.4;;;1.5;;
49582;SDS011;36329;48.816;44.624;2022-08-21T03:17:10;5.3;;;1.7;;
49582;SDS011;36329;48.816;44.624;2022-08-21T03:20:12;3.7;;;1.5;;
49582;SDS011;36329;48.816;44.624;2022-08-21T03:23:15;6.1;;;1.5;;
49582;SDS011;36329;48.816;44.624;2022-08-21T03:26:24;3.8;;;1.1;;
49582;SDS011;36329;48.816;44.624;2022-08-21T03:29:26;4.9;;;1.1;;
49582;SDS011;36329;48.816;44.624;2022-08-21T03:32:27;6.1;;;1.3;;
49582;SDS011;36329;48.816;44.624;2022-08-21T03:35:29;6.6;;;1.2;;
49582;SDS011;36329;48.816;44.624;2022-08-21T03:38:37;4.1;;;1.1;;
49582;SDS011;36329;48.816;44.624;2022-08-21T03:41:39;3;;;1.2;;
49582;SDS011;36329;48.816;44.624;2022-08-21T03:44:40;4.4;;;1.1;;
49582;SDS011;36329;48.816;44.624;2022-08-21T03:47:50;4.4;;;1.2;;
49582;SDS011;36329;48.816;44.624;2022-08-21T03:50:52;3.8;;;1.1;;
49582;SDS011;36329;48.816;44.624;2022-08-21T03:53:59;4.8;;;1.7;;
49582;SDS011;36329;48.816;44.624;2022-08-21T03:57:06;4.9;;;1.8;;
49582;SDS011;36329;48.816;44.624;2022-08-21T04:00:09;5.7;;;1.8;;
49582;SDS011;36329;48.816;44.624;2022-08-21T04:03:17;4.8;;;1.5;;
49582;SDS011;36329;48.816;44.624;2022-08-21T04:06:20;3.9;;;1.3;;
49582;SDS011;36329;48.816;44.624;2022-08-21T04:09:22;5;;;1.4;;
49582;SDS011;36329;48.816;44.624;2022-08-21T04:12:24;6.5;;;1.6;;
49582;SDS011;36329;48.816;44.624;2022-08-21T04:15:26;4.6;;;1.6;;
49582;SDS011;36329;48.816;44.624;2022-08-21T04:18:33;6.5;;;2;;
49582;SDS011;36329;48.816;44.624;2022-08-21T04:21:35;5.1;;;1.7;;
49582;SDS011;36329;48.816;44.624;2022-08-21T04:24:43;8.1;;;1.7;;
49582;SDS011;36329;48.816;44.624;2022-08-21T04:27:50;5.7;;;2;;
49582;SDS011;36329;48.816;44.624;2022-08-21T04:30:58;3.7;;;1.7;;
49582;SDS011;36329;48.816;44.624;2022-08-21T04:33:59;4.8;;;1.6;;
49582;SDS011;36329;48.816;44.624;2022-08-21T04:37:01;7;;;1.8;;
49582;SDS011;36329;48.816;44.624;2022-08-21T04:40:03;4.9;;;2.3;;
49582;SDS011;36329;48.816;44.624;2022-08-21T04:43:08;5.6;;;1.8;;
49582;SDS011;36329;48.816;44.624;2022-08-21T04:46:10;6.4;;;2.4;;
49582;SDS011;36329;48.816;44.624;2022-08-21T04:49:17;6.5;;;2.2;;
49582;SDS011;36329;48.816;44.624;2022-08-21T04:52:20;7.8;;;2.9;;
49582;SDS011;36329;48.816;44.624;2022-08-21T04:55:24;8.7;;;3.2;;
49582;SDS011;36329;48.816;44.624;2022-08-21T04:58:26;6.1;;;2.4;;
49582;SDS011;36329;48.816;44.624;2022-08-21T05:01:38;8.3;;;2.6;;
49582;SDS011;36329;48.816;44.624;2022-08-21T05:07:56;8.3;;;2.6;;
49582;SDS011;36329;48.816;44.624;2022-08-21T05:11:00;6.6;;;2.4;;
49582;SDS011;36329;48.816;44.624;2022-08-21T05:14:03;5.8;;;2.1;;
49582;SDS011;36329;48.816;44.624;2022-08-21T05:17:05;7.8;;;2;;
49582;SDS011;36329;48.816;44.624;2022-08-21T05:20:07;6.6;;;2.3;;
49582;SDS011;36329;48.816;44.624;2022-08-21T05:23:09;10.1;;;2;;
49582;SDS011;36329;48.816;44.624;2022-08-21T05:26:13;7.4;;;2;;
49582;SDS011;36329;48.816;44.624;2022-08-21T05:29:15;5.2;;;2.2;;
49582;SDS011;36329;48.816;44.624;2022-08-21T05:32:17;8.3;;;1.8;;
49582;SDS011;36329;48.816;44.624;2022-08-21T05:35:29;5.2;;;1.2;;
49582;SDS011;36329;48.816;44.624;2022-08-21T05:38:33;6.1;;;1.6;;
49582;SDS011;36329;48.816;44.624;2022-08-21T05:41:45;5.5;;;1.5;;
49582;SDS011;36329;48.816;44.624;2022-08-21T05:44:52;5.2;;;1.4;;
49582;SDS011;36329;48.816;44.624;2022-08-21T05:47:53;6.7;;;1.3;;
49582;SDS011;36329;48.816;44.624;2022-08-21T05:50:55;3.4;;;1.3;;
49582;SDS011;36329;48.816;44.624;2022-08-21T05:54:02;4.6;;;1.1;;
49582;SDS011;36329;48.816;44.624;2022-08-21T05:57:04;3.7;;;1;;
49582;SDS011;36329;48.816;44.624;2022-08-21T06:00:07;2.3;;;0.9;;
49582;SDS011;36329;48.816;44.624;2022-08-21T06:03:10;3;;;0.8;;
49582;SDS011;36329;48.816;44.624;2022-08-21T06:06:22;5;;;0.8;;
49582;SDS011;36329;48.816;44.624;2022-08-21T06:09:24;6.8;;;1.7;;
49582;SDS011;36329;48.816;44.624;2022-08-21T06:12:26;3.8;;;1;;
49582;SDS011;36329;48.816;44.624;2022-08-21T06:15:32;4.8;;;0.7;;
49582;SDS011;36329;48.816;44.624;2022-08-21T06:18:35;4.2;;;1.2;;
49582;SDS011;36329;48.816;44.624;2022-08-21T06:21:42;3.6;;;1;;
49582;SDS011;36329;48.816;44.624;2022-08-21T06:24:44;8.2;;;1.1;;
49582;SDS011;36329;48.816;44.624;2022-08-21T06:27:46;5.3;;;0.9;;
49582;SDS011;36329;48.816;44.624;2022-08-21T06:30:47;5.1;;;0.8;;
49582;SDS011;36329;48.816;44.624;2022-08-21T06:33:49;3.3;;;0.7;;
49582;SDS011;36329;48.816;44.624;2022-08-21T06:36:51;4.9;;;0.9;;
49582;SDS011;36329;48.816;44.624;2022-08-21T06:39:53;3.8;;;0.8;;
49582;SDS011;36329;48.816;44.624;2022-08-21T06:42:55;2.4;;;0.7;;
49582;SDS011;36329;48.816;44.624;2022-08-21T06:45:57;3.6;;;1.1;;
49582;SDS011;36329;48.816;44.624;2022-08-21T06:49:04;9.5;;;3.8;;
49582;SDS011;36329;48.816;44.624;2022-08-21T06:52:08;2.7;;;0.7;;
49582;SDS011;36329;48.816;44.624;2022-08-21T06:55:15;5.7;;;1.7;;
49582;SDS011;36329;48.816;44.624;2022-08-21T06:58:22;6.2;;;1.3;;
49582;SDS011;36329;48.816;44.624;2022-08-21T07:01:25;2.8;;;0.7;;
49582;SDS011;36329;48.816;44.624;2022-08-21T07:04:27;3.4;;;0.7;;
49582;SDS011;36329;48.816;44.624;2022-08-21T07:07:34;2.5;;;0.9;;
49582;SDS011;36329;48.816;44.624;2022-08-21T07:10:41;3.5;;;0.7;;
49582;SDS011;36329;48.816;44.624;2022-08-21T07:13:48;5.3;;;0.8;;
49582;SDS011;36329;48.816;44.624;2022-08-21T07:16:51;3.2;;;0.7;;
49582;SDS011;36329;48.816;44.624;2022-08-21T07:19:53;4.3;;;0.7;;
49582;SDS011;36329;48.816;44.624;2022-08-21T07:23:01;3.9;;;0.7;;
49582;SDS011;36329;48.816;44.624;2022-08-21T07:26:05;4.5;;;0.6;;
49582;SDS011;36329;48.816;44.624;2022-08-21T07:29:07;5.2;;;0.9;;
49582;SDS011;36329;48.816;44.624;2022-08-21T07:32:09;5.1;;;0.8;;
49582;SDS011;36329;48.816;44.624;2022-08-21T07:35:12;5;;;0.7;;
49582;SDS011;36329;48.816;44.624;2022-08-21T07:38:19;4.8;;;0.7;;
49582;SDS011;36329;48.816;44.624;2022-08-21T07:41:22;1.9;;;0.8;;
49582;SDS011;36329;48.816;44.624;2022-08-21T07:44:31;6.1;;;0.7;;
49582;SDS011;36329;48.816;44.624;2022-08-21T07:47:33;4.9;;;0.8;;
49582;SDS011;36329;48.816;44.624;2022-08-21T07:50:34;4;;;0.7;;
49582;SDS011;36329;48.816;44.624;2022-08-21T07:53:37;7.5;;;1;;
49582;SDS011;36329;48.816;44.624;2022-08-21T07:56:39;2.7;;;0.6;;
49582;SDS011;36329;48.816;44.624;2022-08-21T07:59:41;4.3;;;0.6;;
49582;SDS011;36329;48.816;44.624;2022-08-21T08:02:48;5.3;;;0.6;;
49582;SDS011;36329;48.816;44.624;2022-08-21T08:05:53;4.7;;;0.7;;
49582;SDS011;36329;48.816;44.624;2022-08-21T08:08:55;2.5;;;0.7;;
49582;SDS011;36329;48.816;44.624;2022-08-21T08:11:56;4.7;;;0.7;;
49582;SDS011;36329;48.816;44.624;2022-08-21T08:14:58;4.5;;;0.8;;
49582;SDS011;36329;48.816;44.624;2022-08-21T08:18:01;4;;;0.8;;
49582;SDS011;36329;48.816;44.624;2022-08-21T08:21:08;4.4;;;0.7;;
49582;SDS011;36329;48.816;44.624;2022-08-21T08:24:11;4.1;;;0.6;;
49582;SDS011;36329;48.816;44.624;2022-08-21T08:27:17;4.2;;;0.8;;
49582;SDS011;36329;48.816;44.624;2022-08-21T08:30:21;3.8;;;0.9;;
49582;SDS011;36329;48.816;44.624;2022-08-21T08:33:27;6.5;;;0.7;;
49582;SDS011;36329;48.816;44.624;2022-08-21T08:36:31;2.9;;;0.7;;
49582;SDS011;36329;48.816;44.624;2022-08-21T08:39:35;7.7;;;0.8;;
49582;SDS011;36329;48.816;44.624;2022-08-21T08:42:44;5.1;;;0.9;;
49582;SDS011;36329;48.816;44.624;2022-08-21T08:45:48;3.9;;;0.8;;
49582;SDS011;36329;48.816;44.624;2022-08-21T08:48:53;4.2;;;0.9;;
49582;SDS011;36329;48.816;44.624;2022-08-21T08:52:00;4.3;;;0.7;;
49582;SDS011;36329;48.816;44.624;2022-08-21T08:55:07;4.5;;;0.7;;
49582;SDS011;36329;48.816;44.624;2022-08-21T08:58:12;5.3;;;0.7;;
49582;SDS011;36329;48.816;44.624;2022-08-21T09:01:19;3.6;;;1;;
49582;SDS011;36329;48.816;44.624;2022-08-21T09:04:23;3.9;;;0.9;;
49582;SDS011;36329;48.816;44.624;2022-08-21T09:10:46;4;;;0.8;;
49582;SDS011;36329;48.816;44.624;2022-08-21T09:14:00;3.6;;;1;;
49582;SDS011;36329;48.816;44.624;2022-08-21T09:17:31;4;;;0.7;;
49582;SDS011;36329;48.816;44.624;2022-08-21T09:20:47;4.1;;;0.6;;
49582;SDS011;36329;48.816;44.624;2022-08-21T09:24:12;4;;;0.7;;
49582;SDS011;36329;48.816;44.624;2022-08-21T09:27:34;4.9;;;0.6;;
49582;SDS011;36329;48.816;44.624;2022-08-21T09:30:35;6.2;;;0.8;;
49582;SDS011;36329;48.816;44.624;2022-08-21T09:33:37;5.3;;;0.7;;
49582;SDS011;36329;48.816;44.624;2022-08-21T09:36:45;5.2;;;0.7;;
49582;SDS011;36329;48.816;44.624;2022-08-21T09:39:50;3.9;;;0.7;;
49582;SDS011;36329;48.816;44.624;2022-08-21T09:42:54;4.6;;;0.9;;
49582;SDS011;36329;48.816;44.624;2022-08-21T09:46:03;5.6;;;0.9;;
49582;SDS011;36329;48.816;44.624;2022-08-21T09:49:08;4.3;;;0.8;;
49582;SDS011;36329;48.816;44.624;2022-08-21T09:52:15;4.3;;;1;;
49582;SDS011;36329;48.816;44.624;2022-08-21T09:55:31;4.9;;;1.2;;
49582;SDS011;36329;48.816;44.624;2022-08-21T09:58:38;4.5;;;0.8;;
49582;SDS011;36329;48.816;44.624;2022-08-21T10:01:48;3.7;;;1;;
49582;SDS011;36329;48.816;44.624;2022-08-21T10:04:52;4.6;;;1;;
49582;SDS011;36329;48.816;44.624;2022-08-21T10:08:02;5.4;;;0.8;;
49582;SDS011;36329;48.816;44.624;2022-08-21T10:11:15;3.4;;;0.9;;
49582;SDS011;36329;48.816;44.624;2022-08-21T10:14:19;4.8;;;1.1;;
49582;SDS011;36329;48.816;44.624;2022-08-21T10:17:36;4.8;;;1.1;;
49582;SDS011;36329;48.816;44.624;2022-08-21T10:20:45;6.4;;;1.3;;
49582;SDS011;36329;48.816;44.624;2022-08-21T10:23:54;5.3;;;1.1;;
49582;SDS011;36329;48.816;44.624;2022-08-21T10:27:13;4.6;;;1;;
49582;SDS011;36329;48.816;44.624;2022-08-21T10:30:30;7.1;;;1.2;;
49582;SDS011;36329;48.816;44.624;2022-08-21T10:33:40;4.9;;;0.9;;
49582;SDS011;36329;48.816;44.624;2022-08-21T10:36:58;5.2;;;1.1;;
49582;SDS011;36329;48.816;44.624;2022-08-21T10:40:15;4.6;;;0.9;;
49582;SDS011;36329;48.816;44.624;2022-08-21T10:43:33;5.2;;;0.9;;
49582;SDS011;36329;48.816;44.624;2022-08-21T10:46:47;4.8;;;1.2;;
49582;SDS011;36329;48.816;44.624;2022-08-21T10:49:54;4.4;;;1;;
49582;SDS011;36329;48.816;44.624;2022-08-21T10:53:07;5.2;;;0.9;;
49582;SDS011;36329;48.816;44.624;2022-08-21T10:56:17;4.2;;;0.9;;
49582;SDS011;36329;48.816;44.624;2022-08-21T10:59:25;5.4;;;1;;
49582;SDS011;36329;48.816;44.624;2022-08-21T11:02:33;4.5;;;0.8;;
49582;SDS011;36329;48.816;44.624;2022-08-21T11:05:42;5.3;;;0.8;;
49582;SDS011;36329;48.816;44.624;2022-08-21T11:08:49;4.8;;;0.9;;
49582;SDS011;36329;48.816;44.624;2022-08-21T11:12:03;8.9;;;1.6;;
49582;SDS011;36329;48.816;44.624;2022-08-21T11:15:23;5.1;;;1.2;;
49582;SDS011;36329;48.816;44.624;2022-08-21T11:18:34;12;;;6.7;;
49582;SDS011;36329;48.816;44.624;2022-08-21T11:21:41;8.9;;;2;;
49582;SDS011;36329;48.816;44.624;2022-08-21T11:24:50;9;;;4.4;;
49582;SDS011;36329;48.816;44.624;2022-08-21T11:28:00;5.6;;;1.1;;
49582;SDS011;36329;48.816;44.624;2022-08-21T11:31:11;4.8;;;1.5;;
49582;SDS011;36329;48.816;44.624;2022-08-21T11:34:23;4.3;;;1.1;;
49582;SDS011;36329;48.816;44.624;2022-08-21T11:37:42;7;;;2.9;;
49582;SDS011;36329;48.816;44.624;2022-08-21T11:40:54;6.4;;;1.1;;
49582;SDS011;36329;48.816;44.624;2022-08-21T11:44:07;6;;;1;;
49582;SDS011;36329;48.816;44.624;2022-08-21T11:47:15;6.1;;;1.2;;
49582;SDS011;36329;48.816;44.624;2022-08-21T11:50:30;5.7;;;1.9;;
49582;SDS011;36329;48.816;44.624;2022-08-21T11:53:34;6.9;;;2.9;;
49582;SDS011;36329;48.816;44.624;2022-08-21T11:56:43;5.4;;;1.2;;
49582;SDS011;36329;48.816;44.624;2022-08-21T11:59:59;7.8;;;1.3;;
49582;SDS011;36329;48.816;44.624;2022-08-21T12:03:11;5.4;;;1.3;;
49582;SDS011;36329;48.816;44.624;2022-08-21T12:06:26;9.7;;;1.7;;
49582;SDS011;36329;48.816;44.624;2022-08-21T12:09:33;9.4;;;1.6;;
49582;SDS011;36329;48.816;44.624;2022-08-21T12:12:37;8.7;;;1.6;;
49582;SDS011;36329;48.816;44.624;2022-08-21T12:15:46;8.9;;;1.7;;
49582;SDS011;36329;48.816;44.624;2022-08-21T12:18:48;8.3;;;1.9;;
49582;SDS011;36329;48.816;44.624;2022-08-21T12:21:53;7.9;;;1.7;;
49582;SDS011;36329;48.816;44.624;2022-08-21T12:25:03;8.3;;;1.7;;
49582;SDS011;36329;48.816;44.624;2022-08-21T12:28:09;7.2;;;1.7;;
49582;SDS011;36329;48.816;44.624;2022-08-21T12:31:17;7.3;;;1.7;;
49582;SDS011;36329;48.816;44.624;2022-08-21T12:34:22;6.7;;;1.7;;
49582;SDS011;36329;48.816;44.624;2022-08-21T12:37:27;10;;;1.7;;
49582;SDS011;36329;48.816;44.624;2022-08-21T12:40:37;12.8;;;1.9;;
49582;SDS011;36329;48.816;44.624;2022-08-21T12:43:45;8.7;;;1.9;;
49582;SDS011;36329;48.816;44.624;2022-08-21T12:46:57;9.7;;;1.7;;
49582;SDS011;36329;48.816;44.624;2022-08-21T12:50:04;10.2;;;1.6;;
49582;SDS011;36329;48.816;44.624;2022-08-21T12:53:22;9.2;;;1.7;;
49582;SDS011;36329;48.816;44.624;2022-08-21T12:56:30;8.3;;;1.8;;
49582;SDS011;36329;48.816;44.624;2022-08-21T12:59:38;14.1;;;1.9;;
49582;SDS011;36329;48.816;44.624;2022-08-21T13:02:42;6.5;;;1.6;;
49582;SDS011;36329;48.816;44.624;2022-08-21T13:05:50;9.8;;;1.8;;
49582;SDS011;36329;48.816;44.624;2022-08-21T13:08:53;9.5;;;1.8;;
49582;SDS011;36329;48.816;44.624;2022-08-21T13:12:17;7.5;;;1.7;;
49582;SDS011;36329;48.816;44.624;2022-08-21T13:15:22;10.9;;;1.9;;
49582;SDS011;36329;48.816;44.624;2022-08-21T13:18:28;12.8;;;1.9;;
49582;SDS011;36329;48.816;44.624;2022-08-21T13:21:33;9.2;;;2.2;;
49582;SDS011;36329;48.816;44.624;2022-08-21T13:24:36;7.4;;;2.2;;
49582;SDS011;36329;48.816;44.624;2022-08-21T13:27:38;7.4;;;1.9;;
49582;SDS011;36329;48.816;44.624;2022-08-21T13:30:42;14.6;;;2.4;;
49582;SDS011;36329;48.816;44.624;2022-08-21T13:33:51;13.8;;;2.1;;
49582;SDS011;36329;48.816;44.624;2022-08-21T13:36:57;11.2;;;2;;
49582;SDS011;36329;48.816;44.624;2022-08-21T13:40:01;9.6;;;1.8;;
49582;SDS011;36329;48.816;44.624;2022-08-21T13:43:03;11.9;;;1.9;;
49582;SDS011;36329;48.816;44.624;2022-08-21T13:46:10;15.5;;;2.5;;
49582;SDS011;36329;48.816;44.624;2022-08-21T13:49:16;8.7;;;2.3;;
49582;SDS011;36329;48.816;44.624;2022-08-21T13:52:21;6.8;;;1.9;;
49582;SDS011;36329;48.816;44.624;2022-08-21T13:55:38;10.3;;;2.3;;
49582;SDS011;36329;48.816;44.624;2022-08-21T13:58:48;9.6;;;2;;
49582;SDS011;36329;48.816;44.624;2022-08-21T14:01:51;10.9;;;1.9;;
49582;SDS011;36329;48.816;44.624;2022-08-21T14:04:56;8.8;;;2;;
49582;SDS011;36329;48.816;44.624;2022-08-21T14:08:01;6.5;;;1.8;;
49582;SDS011;36329;48.816;44.624;2022-08-21T14:11:06;8.2;;;1.8;;
49582;SDS011;36329;48.816;44.624;2022-08-21T14:14:20;7.9;;;1.8;;
49582;SDS011;36329;48.816;44.624;2022-08-21T14:17:33;11;;;1.9;;
49582;SDS011;36329;48.816;44.624;2022-08-21T14:20:36;11.7;;;1.9;;
49582;SDS011;36329;48.816;44.624;2022-08-21T14:23:38;10.1;;;1.7;;
49582;SDS011;36329;48.816;44.624;2022-08-21T14:26:43;8.7;;;2.2;;
49582;SDS011;36329;48.816;44.624;2022-08-21T14:29:47;8.6;;;2.3;;
49582;SDS011;36329;48.816;44.624;2022-08-21T14:32:49;7.1;;;2.4;;
49582;SDS011;36329;48.816;44.624;2022-08-21T14:35:51;8.1;;;1.9;;
49582;SDS011;36329;48.816;44.624;2022-08-21T14:38:52;11.2;;;2.3;;
49582;SDS011;36329;48.816;44.624;2022-08-21T14:41:54;9.2;;;2.2;;
49582;SDS011;36329;48.816;44.624;2022-08-21T14:45:00;8.3;;;2.4;;
49582;SDS011;36329;48.816;44.624;2022-08-21T14:48:04;8.7;;;2.3;;
49582;SDS011;36329;48.816;44.624;2022-08-21T14:51:06;8.9;;;2.4;;
49582;SDS011;36329;48.816;44.624;2022-08-21T14:54:07;9.9;;;2.8;;
49582;SDS011;36329;48.816;44.624;2022-08-21T15:00:24;11.1;;;2.2;;
49582;SDS011;36329;48.816;44.624;2022-08-21T15:03:26;12.6;;;2.5;;
49582;SDS011;36329;48.816;44.624;2022-08-21T15:06:39;12.5;;;2.7;;
49582;SDS011;36329;48.816;44.624;2022-08-21T15:09:45;10.8;;;2.7;;
49582;SDS011;36329;48.816;44.624;2022-08-21T15:12:47;10.6;;;2.6;;
49582;SDS011;36329;48.816;44.624;2022-08-21T15:15:54;11.8;;;2.6;;
49582;SDS011;36329;48.816;44.624;2022-08-21T15:18:56;9.6;;;2.3;;
49582;SDS011;36329;48.816;44.624;2022-08-21T15:21:58;5;;;2.1;;
49582;SDS011;36329;48.816;44.624;2022-08-21T15:25:00;8.7;;;2.6;;
49582;SDS011;36329;48.816;44.624;2022-08-21T15:28:02;9.6;;;2.7;;
49582;SDS011;36329;48.816;44.624;2022-08-21T15:31:11;10;;;3.6;;
49582;SDS011;36329;48.816;44.624;2022-08-21T15:34:13;8.5;;;2.8;;
49582;SDS011;36329;48.816;44.624;2022-08-21T15:37:14;7.1;;;2.3;;
49582;SDS011;36329;48.816;44.624;2022-08-21T15:40:16;10.4;;;2.6;;
49582;SDS011;36329;48.816;44.624;2022-08-21T15:43:22;9.6;;;2.7;;
49582;SDS011;36329;48.816;44.624;2022-08-21T15:46:26;10.1;;;3.3;;
49582;SDS011;36329;48.816;44.624;2022-08-21T15:49:27;10;;;2.8;;
49582;SDS011;36329;48.816;44.624;2022-08-21T15:52:29;9.8;;;2.7;;
49582;SDS011;36329;48.816;44.624;2022-08-21T15:55:30;9.6;;;2.2;;
49582;SDS011;36329;48.816;44.624;2022-08-21T16:01:51;8.2;;;2.4;;
49582;SDS011;36329;48.816;44.624;2022-08-21T16:04:53;9.7;;;2.3;;
49582;SDS011;36329;48.816;44.624;2022-08-21T16:08:00;12.5;;;2.4;;
49582;SDS011;36329;48.816;44.624;2022-08-21T16:11:08;11.7;;;2.4;;
49582;SDS011;36329;48.816;44.624;2022-08-21T16:14:11;6.8;;;2.4;;
49582;SDS011;36329;48.816;44.624;2022-08-21T16:17:15;8.1;;;2.2;;
49582;SDS011;36329;48.816;44.624;2022-08-21T16:20:19;7.8;;;2.7;;
49582;SDS011;36329;48.816;44.624;2022-08-21T16:23:24;8.3;;;2.6;;
49582;SDS011;36329;48.816;44.624;2022-08-21T16:26:26;10.1;;;2.4;;
49582;SDS011;36329;48.816;44.624;2022-08-21T16:29:29;7.7;;;2.3;;
49582;SDS011;36329;48.816;44.624;2022-08-21T16:32:35;8.8;;;2.7;;
49582;SDS011;36329;48.816;44.624;2022-08-21T16:35:37;10.9;;;2.6;;
49582;SDS011;36329;48.816;44.624;2022-08-21T16:38:39;8.5;;;2.3;;
49582;SDS011;36329;48.816;44.624;2022-08-21T16:41:41;11.4;;;2.5;;
49582;SDS011;36329;48.816;44.624;2022-08-21T16:44:42;9.3;;;3;;
49582;SDS011;36329;48.816;44.624;2022-08-21T16:47:49;14.5;;;3.4;;
49582;SDS011;36329;48.816;44.624;2022-08-21T16:50:56;10.9;;;3.3;;
49582;SDS011;36329;48.816;44.624;2022-08-21T16:53:58;10.3;;;3.1;;
49582;SDS011;36329;48.816;44.624;2022-08-21T16:57:00;8.8;;;2.7;;
49582;SDS011;36329;48.816;44.624;2022-08-21T17:00:09;8;;;2.4;;
49582;SDS011;36329;48.816;44.624;2022-08-21T17:03:12;9.1;;;2.6;;
49582;SDS011;36329;48.816;44.624;2022-08-21T17:06:16;10.2;;;3.2;;
49582;SDS011;36329;48.816;44.624;2022-08-21T17:09:24;11;;;3.7;;
49582;SDS011;36329;48.816;44.624;2022-08-21T17:12:31;13.1;;;3.4;;
49582;SDS011;36329;48.816;44.624;2022-08-21T17:15:36;9.3;;;3.2;;
49582;SDS011;36329;48.816;44.624;2022-08-21T17:18:39;11.9;;;2.7;;
49582;SDS011;36329;48.816;44.624;2022-08-21T17:21:51;11.6;;;3.1;;
49582;SDS011;36329;48.816;44.624;2022-08-21T17:24:52;9.5;;;2.7;;
49582;SDS011;36329;48.816;44.624;2022-08-21T17:27:54;9.9;;;3.1;;
49582;SDS011;36329;48.816;44.624;2022-08-21T17:30:57;13.2;;;3.2;;
49582;SDS011;36329;48.816;44.624;2022-08-21T17:34:10;11.2;;;2.9;;
49582;SDS011;36329;48.816;44.624;2022-08-21T17:37:18;10.6;;;2.9;;
49582;SDS011;36329;48.816;44.624;2022-08-21T17:40:20;14;;;2.7;;
49582;SDS011;36329;48.816;44.624;2022-08-21T17:43:22;11.9;;;3.1;;
49582;SDS011;36329;48.816;44.624;2022-08-21T17:46:39;10.6;;;3.1;;
49582;SDS011;36329;48.816;44.624;2022-08-21T17:49:42;11.7;;;3.5;;
49582;SDS011;36329;48.816;44.624;2022-08-21T17:52:44;9.4;;;3.5;;
49582;SDS011;36329;48.816;44.624;2022-08-21T17:55:51;8.5;;;3;;
49582;SDS011;36329;48.816;44.624;2022-08-21T17:58:53;7;;;3;;
49582;SDS011;36329;48.816;44.624;2022-08-21T18:01:55;10.6;;;4.2;;
49582;SDS011;36329;48.816;44.624;2022-08-21T18:04:57;9.6;;;3.9;;
49582;SDS011;36329;48.816;44.624;2022-08-21T18:07:58;11.6;;;4.3;;
49582;SDS011;36329;48.816;44.624;2022-08-21T18:11:00;10.3;;;3.9;;
49582;SDS011;36329;48.816;44.624;2022-08-21T18:14:02;9.1;;;3.3;;
49582;SDS011;36329;48.816;44.624;2022-08-21T18:17:06;9.8;;;3.3;;
49582;SDS011;36329;48.816;44.624;2022-08-21T18:20:10;8.3;;;2.7;;
49582;SDS011;36329;48.816;44.624;2022-08-21T18:23:11;10.1;;;4;;
49582;SDS011;36329;48.816;44.624;2022-08-21T18:26:22;11.9;;;4.8;;
49582;SDS011;36329;48.816;44.624;2022-08-21T18:29:27;11.2;;;2.5;;
49582;SDS011;36329;48.816;44.624;2022-08-21T18:32:35;8;;;2.3;;
49582;SDS011;36329;48.816;44.624;2022-08-21T18:35:37;11.6;;;2.8;;
49582;SDS011;36329;48.816;44.624;2022-08-21T18:38:39;8.5;;;2.6;;
49582;SDS011;36329;48.816;44.624;2022-08-21T18:41:41;8.2;;;2.3;;
49582;SDS011;36329;48.816;44.624;2022-08-21T18:44:45;9.4;;;2.6;;
49582;SDS011;36329;48.816;44.624;2022-08-21T18:47:55;9.8;;;2.6;;
49582;SDS011;36329;48.816;44.624;2022-08-21T18:50:59;10.6;;;2.5;;
49582;SDS011;36329;48.816;44.624;2022-08-21T18:54:01;9.2;;;2.6;;
49582;SDS011;36329;48.816;44.624;2022-08-21T19:00:22;8.3;;;2.3;;
49582;SDS011;36329;48.816;44.624;2022-08-21T19:03:25;11.1;;;2.3;;
49582;SDS011;36329;48.816;44.624;2022-08-21T19:06:27;9.7;;;2.4;;
49582;SDS011;36329;48.816;44.624;2022-08-21T19:09:40;12.8;;;2.8;;
49582;SDS011;36329;48.816;44.624;2022-08-21T19:12:43;8.8;;;2.2;;